sensor_id;sensor_type;location;lat;lon;timestamp;pressure;altitude;pressure_sealevel;temperature;humidity
36788;BME280;22738;45.560;9.434;2023-02-28T00:00:15;100393.16;;;5.96;100.00
36788;BME280;22738;45.560;9.434;2023-02-28T00:06:56;100400.00;;;5.97;100.00
36788;BME280;22738;45.560;9.434;2023-02-28T00:13:41;100399.31;;;5.92;100.00
36788;BME280;22738;45.560;9.434;2023-02-28T00:20:24;100409.53;;;5.93;100.00
36788;BME280;22738;45.560;9.434;2023-02-28T00:27:06;100413.88;;;5.93;100.00
36788;BME280;22738;45.560;9.434;2023-02-28T00:33:47;100408.81;;;5.90;100.00
36788;BME280;22738;45.560;9.434;2023-02-28T00:40:29;100410.50;;;5.91;100.00
36788;BME280;22738;45.560;9.434;2023-02-28T00:47:10;100417.31;;;5.92;100.00
36788;BME280;22738;45.560;9.434;2023-02-28T00:53:51;100413.88;;;5.93;100.00
36788;BME280;22738;45.560;9.434;2023-02-28T01:00:32;100422.47;;;5.92;100.00
36788;BME280;22738;45.560;9.434;2023-02-28T01:07:13;100433.81;;;6.11;100.00
36788;BME280;22738;45.560;9.434;2023-02-28T01:13:55;100430.44;;;5.84;100.00
36788;BME280;22738;45.560;9.434;2023-02-28T01:20:37;100438.19;;;5.83;100.00
36788;BME280;22738;45.560;9.434;2023-02-28T01:27:18;100434.06;;;5.78;100.00
36788;BME280;22738;45.560;9.434;2023-02-28T01:33:59;100432.44;;;5.76;100.00
36788;BME280;22738;45.560;9.434;2023-02-28T01:40:43;100432.66;;;5.70;100.00
36788;BME280;22738;45.560;9.434;2023-02-28T01:47:32;100428.84;;;5.55;100.00
36788;BME280;22738;45.560;9.434;2023-02-28T01:54:17;100430.94;;;5.44;100.00
36788;BME280;22738;45.560;9.434;2023-02-28T02:01:01;100422.31;;;5.45;100.00
36788;BME280;22738;45.560;9.434;2023-02-28T02:07:45;100423.28;;;5.43;100.00
36788;BME280;22738;45.560;9.434;2023-02-28T02:28:53;100427.69;;;5.39;100.00
36788;BME280;22738;45.560;9.434;2023-02-28T02:42:41;100432.88;;;5.12;100.00
36788;BME280;22738;45.560;9.434;2023-02-28T02:49:29;100430.06;;;5.19;100.00
36788;BME280;22738;45.560;9.434;2023-02-28T02:56:12;100422.75;;;5.07;100.00
36788;BME280;22738;45.560;9.434;2023-02-28T03:02:55;100437.16;;;5.11;100.00
36788;BME280;22738;45.560;9.434;2023-02-28T03:09:37;100431.88;;;5.42;100.00
36788;BME280;22738;45.560;9.434;2023-02-28T03:23:31;100433.38;;;4.96;100.00
36788;BME280;22738;45.560;9.434;2023-02-28T03:37:19;100432.44;;;4.99;100.00
36788;BME280;22738;45.560;9.434;2023-02-28T03:44:10;100427.59;;;4.90;100.00
36788;BME280;22738;45.560;9.434;2023-02-28T03:50:58;100430.59;;;4.76;100.00
36788;BME280;22738;45.560;9.434;2023-02-28T03:57:57;100434.03;;;4.75;100.00
36788;BME280;22738;45.560;9.434;2023-02-28T04:04:42;100443.56;;;4.72;100.00
36788;BME280;22738;45.560;9.434;2023-02-28T04:11:39;100443.56;;;4.72;100.00
36788;BME280;22738;45.560;9.434;2023-02-28T04:18:20;100454.81;;;4.68;100.00
36788;BME280;22738;45.560;9.434;2023-02-28T04:25:02;100453.16;;;4.65;100.00
36788;BME280;22738;45.560;9.434;2023-02-28T04:31:43;100454.84;;;4.66;100.00
36788;BME280;22738;45.560;9.434;2023-02-28T04:38:24;100461.66;;;4.67;100.00
36788;BME280;22738;45.560;9.434;2023-02-28T04:45:05;100463.56;;;4.61;100.00
36788;BME280;22738;45.560;9.434;2023-02-28T04:51:46;100459.94;;;4.39;100.00
36788;BME280;22738;45.560;9.434;2023-02-28T04:58:30;100460.56;;;4.47;100.00
36788;BME280;22738;45.560;9.434;2023-02-28T05:05:11;100461.50;;;4.44;100.00
36788;BME280;22738;45.560;9.434;2023-02-28T05:11:58;100473.41;;;4.47;100.00
36788;BME280;22738;45.560;9.434;2023-02-28T05:18:39;100477.56;;;4.51;100.00
36788;BME280;22738;45.560;9.434;2023-02-28T05:25:21;100480.13;;;4.51;100.00
36788;BME280;22738;45.560;9.434;2023-02-28T05:32:05;100479.78;;;4.63;100.00
36788;BME280;22738;45.560;9.434;2023-02-28T05:38:47;100479.94;;;4.57;100.00
36788;BME280;22738;45.560;9.434;2023-02-28T05:45:28;100480.84;;;4.56;100.00
36788;BME280;22738;45.560;9.434;2023-02-28T05:52:09;100483.72;;;4.45;100.00
36788;BME280;22738;45.560;9.434;2023-02-28T05:58:51;100471.09;;;4.38;100.00
36788;BME280;22738;45.560;9.434;2023-02-28T06:05:32;100466.84;;;4.37;100.00
36788;BME280;22738;45.560;9.434;2023-02-28T06:12:13;100474.50;;;4.38;100.00
36788;BME280;22738;45.560;9.434;2023-02-28T06:18:57;100478.78;;;4.38;100.00
36788;BME280;22738;45.560;9.434;2023-02-28T06:25:38;100484.38;;;4.52;100.00
36788;BME280;22738;45.560;9.434;2023-02-28T06:32:19;100477.63;;;4.48;100.00
36788;BME280;22738;45.560;9.434;2023-02-28T06:39:00;100495.25;;;4.60;100.00
36788;BME280;22738;45.560;9.434;2023-02-28T06:45:43;100499.84;;;4.78;100.00
36788;BME280;22738;45.560;9.434;2023-02-28T06:52:24;100502.41;;;4.78;100.00
36788;BME280;22738;45.560;9.434;2023-02-28T06:59:06;100502.94;;;4.89;100.00
36788;BME280;22738;45.560;9.434;2023-02-28T07:05:47;100509.22;;;5.08;100.00
36788;BME280;22738;45.560;9.434;2023-02-28T07:12:28;100515.66;;;5.21;100.00
36788;BME280;22738;45.560;9.434;2023-02-28T07:19:09;100518.94;;;5.26;100.00
36788;BME280;22738;45.560;9.434;2023-02-28T07:25:51;100523.41;;;5.47;100.00
36788;BME280;22738;45.560;9.434;2023-02-28T07:32:34;100522.59;;;5.71;100.00
36788;BME280;22738;45.560;9.434;2023-02-28T07:39:18;100514.38;;;5.87;100.00
36788;BME280;22738;45.560;9.434;2023-02-28T07:46:04;100525.59;;;5.86;100.00
36788;BME280;22738;45.560;9.434;2023-02-28T07:52:46;100531.78;;;6.05;100.00
36788;BME280;22738;45.560;9.434;2023-02-28T07:59:28;100539.72;;;6.23;100.00
36788;BME280;22738;45.560;9.434;2023-02-28T08:06:17;100541.56;;;6.20;100.00
36788;BME280;22738;45.560;9.434;2023-02-28T08:12:58;100538.59;;;6.30;100.00
36788;BME280;22738;45.560;9.434;2023-02-28T08:19:39;100536.72;;;6.35;100.00
36788;BME280;22738;45.560;9.434;2023-02-28T08:26:21;100542.06;;;6.54;100.00
36788;BME280;22738;45.560;9.434;2023-02-28T08:33:02;100547.84;;;6.59;100.00
36788;BME280;22738;45.560;9.434;2023-02-28T08:39:43;100556.84;;;6.47;100.00
36788;BME280;22738;45.560;9.434;2023-02-28T08:46:24;100560.97;;;6.53;100.00
36788;BME280;22738;45.560;9.434;2023-02-28T08:53:05;100558.13;;;6.61;100.00
36788;BME280;22738;45.560;9.434;2023-02-28T08:59:47;100552.69;;;6.68;100.00
36788;BME280;22738;45.560;9.434;2023-02-28T09:06:28;100552.41;;;6.76;100.00
36788;BME280;22738;45.560;9.434;2023-02-28T09:13:09;100563.50;;;7.01;100.00
36788;BME280;22738;45.560;9.434;2023-02-28T09:19:50;100572.16;;;7.22;100.00
36788;BME280;22738;45.560;9.434;2023-02-28T09:26:31;100571.06;;;7.27;100.00
36788;BME280;22738;45.560;9.434;2023-02-28T09:33:15;100582.25;;;7.49;100.00
36788;BME280;22738;45.560;9.434;2023-02-28T09:39:57;100575.28;;;7.93;100.00
36788;BME280;22738;45.560;9.434;2023-02-28T09:46:44;100579.94;;;7.85;100.00
36788;BME280;22738;45.560;9.434;2023-02-28T09:53:31;100582.03;;;8.17;100.00
36788;BME280;22738;45.560;9.434;2023-02-28T10:00:29;100582.41;;;8.69;100.00
36788;BME280;22738;45.560;9.434;2023-02-28T10:07:41;100582.22;;;9.10;100.00
36788;BME280;22738;45.560;9.434;2023-02-28T10:14:29;100585.31;;;9.90;100.00
36788;BME280;22738;45.560;9.434;2023-02-28T10:21:28;100572.31;;;10.91;93.04
36788;BME280;22738;45.560;9.434;2023-02-28T10:28:12;100582.13;;;10.53;95.93
36788;BME280;22738;45.560;9.434;2023-02-28T10:41:50;100585.53;;;12.40;87.44
36788;BME280;22738;45.560;9.434;2023-02-28T10:48:34;100588.81;;;12.13;87.66
36788;BME280;22738;45.560;9.434;2023-02-28T10:55:25;100570.16;;;11.46;89.57
36788;BME280;22738;45.560;9.434;2023-02-28T11:02:34;100564.19;;;10.97;96.32
36788;BME280;22738;45.560;9.434;2023-02-28T11:16:07;100546.66;;;10.54;100.00
36788;BME280;22738;45.560;9.434;2023-02-28T11:22:50;100537.69;;;10.27;100.00
36788;BME280;22738;45.560;9.434;2023-02-28T11:29:33;100524.28;;;10.68;100.00
36788;BME280;22738;45.560;9.434;2023-02-28T11:36:20;100520.22;;;10.47;100.00
36788;BME280;22738;45.560;9.434;2023-02-28T11:43:13;100503.66;;;10.50;100.00
36788;BME280;22738;45.560;9.434;2023-02-28T11:50:14;100494.97;;;10.51;100.00
36788;BME280;22738;45.560;9.434;2023-02-28T11:57:06;100491.63;;;10.49;100.00
36788;BME280;22738;45.560;9.434;2023-02-28T12:04:17;100470.25;;;10.77;100.00
36788;BME280;22738;45.560;9.434;2023-02-28T12:46:01;100420.31;;;10.42;100.00
36788;BME280;22738;45.560;9.434;2023-02-28T12:53:00;100417.22;;;10.66;100.00
36788;BME280;22738;45.560;9.434;2023-02-28T13:00:34;100398.22;;;10.66;100.00
36788;BME280;22738;45.560;9.434;2023-02-28T13:13:47;100387.28;;;10.61;100.00
36788;BME280;22738;45.560;9.434;2023-02-28T13:20:34;100387.81;;;10.67;100.00
36788;BME280;22738;45.560;9.434;2023-02-28T13:40:39;100371.25;;;10.39;100.00
36788;BME280;22738;45.560;9.434;2023-02-28T13:47:23;100366.38;;;10.64;97.88
36788;BME280;22738;45.560;9.434;2023-02-28T13:54:17;100356.16;;;10.92;100.00
36788;BME280;22738;45.560;9.434;2023-02-28T14:08:04;100350.69;;;10.97;100.00
36788;BME280;22738;45.560;9.434;2023-02-28T14:21:31;100336.97;;;10.65;92.03
36788;BME280;22738;45.560;9.434;2023-02-28T14:35:37;100326.41;;;10.68;100.00
36788;BME280;22738;45.560;9.434;2023-02-28T14:42:30;100315.69;;;10.74;95.50
36788;BME280;22738;45.560;9.434;2023-02-28T14:49:34;100310.50;;;10.74;94.74
36788;BME280;22738;45.560;9.434;2023-02-28T14:56:24;100313.72;;;10.93;98.53
36788;BME280;22738;45.560;9.434;2023-02-28T15:03:27;100299.13;;;10.77;100.00
36788;BME280;22738;45.560;9.434;2023-02-28T15:10:18;100296.00;;;10.25;100.00
36788;BME280;22738;45.560;9.434;2023-02-28T15:17:07;100296.50;;;10.16;100.00
36788;BME280;22738;45.560;9.434;2023-02-28T15:31:20;100281.63;;;10.03;100.00
36788;BME280;22738;45.560;9.434;2023-02-28T15:38:12;100273.28;;;9.98;100.00
36788;BME280;22738;45.560;9.434;2023-02-28T15:44:55;100279.53;;;9.94;100.00
36788;BME280;22738;45.560;9.434;2023-02-28T15:51:39;100273.06;;;9.86;100.00
36788;BME280;22738;45.560;9.434;2023-02-28T15:58:22;100264.25;;;9.74;100.00
36788;BME280;22738;45.560;9.434;2023-02-28T16:11:47;100268.22;;;9.64;100.00
36788;BME280;22738;45.560;9.434;2023-02-28T16:18:29;100258.22;;;9.58;100.00
36788;BME280;22738;45.560;9.434;2023-02-28T16:25:15;100264.69;;;9.50;100.00
36788;BME280;22738;45.560;9.434;2023-02-28T16:31:56;100254.81;;;9.41;100.00
36788;BME280;22738;45.560;9.434;2023-02-28T16:38:38;100263.28;;;9.27;100.00
36788;BME280;22738;45.560;9.434;2023-02-28T16:45:24;100248.47;;;9.13;100.00
36788;BME280;22738;45.560;9.434;2023-02-28T16:52:05;100257.78;;;9.00;100.00
36788;BME280;22738;45.560;9.434;2023-02-28T16:58:47;100264.09;;;8.78;100.00
36788;BME280;22738;45.560;9.434;2023-02-28T17:05:35;100266.81;;;8.57;100.00
36788;BME280;22738;45.560;9.434;2023-02-28T17:12:18;100264.22;;;8.40;100.00
36788;BME280;22738;45.560;9.434;2023-02-28T17:19:01;100270.22;;;8.22;100.00
36788;BME280;22738;45.560;9.434;2023-02-28T17:25:43;100273.94;;;7.98;100.00
36788;BME280;22738;45.560;9.434;2023-02-28T17:32:33;100266.47;;;7.55;100.00
36788;BME280;22738;45.560;9.434;2023-02-28T17:39:16;100272.31;;;7.40;100.00
36788;BME280;22738;45.560;9.434;2023-02-28T17:46:05;100271.03;;;7.09;100.00
36788;BME280;22738;45.560;9.434;2023-02-28T17:52:48;100264.00;;;6.73;100.00
36788;BME280;22738;45.560;9.434;2023-02-28T17:59:30;100268.09;;;6.57;100.00
36788;BME280;22738;45.560;9.434;2023-02-28T18:06:37;100267.84;;;6.42;100.00
36788;BME280;22738;45.560;9.434;2023-02-28T18:13:26;100269.84;;;6.36;100.00
36788;BME280;22738;45.560;9.434;2023-02-28T18:20:09;100266.97;;;6.22;100.00
36788;BME280;22738;45.560;9.434;2023-02-28T18:26:52;100267.66;;;6.04;100.00
36788;BME280;22738;45.560;9.434;2023-02-28T18:33:33;100271.88;;;5.82;100.00
36788;BME280;22738;45.560;9.434;2023-02-28T18:40:15;100273.38;;;5.65;100.00
36788;BME280;22738;45.560;9.434;2023-02-28T18:46:56;100268.56;;;5.56;100.00
36788;BME280;22738;45.560;9.434;2023-02-28T18:53:38;100269.06;;;5.43;100.00
36788;BME280;22738;45.560;9.434;2023-02-28T19:00:20;100268.00;;;5.48;100.00
36788;BME280;22738;45.560;9.434;2023-02-28T19:07:02;100268.44;;;5.36;100.00
36788;BME280;22738;45.560;9.434;2023-02-28T19:13:44;100262.00;;;5.00;100.00
36788;BME280;22738;45.560;9.434;2023-02-28T19:20:25;100267.19;;;4.98;100.00
36788;BME280;22738;45.560;9.434;2023-02-28T19:27:06;100269.25;;;4.89;100.00
36788;BME280;22738;45.560;9.434;2023-02-28T19:33:47;100268.34;;;4.90;100.00
36788;BME280;22738;45.560;9.434;2023-02-28T19:40:28;100270.41;;;5.05;100.00
36788;BME280;22738;45.560;9.434;2023-02-28T19:47:10;100277.47;;;4.98;100.00
36788;BME280;22738;45.560;9.434;2023-02-28T19:53:51;100272.03;;;4.57;100.00
36788;BME280;22738;45.560;9.434;2023-02-28T20:00:32;100269.84;;;4.71;100.00
36788;BME280;22738;45.560;9.434;2023-02-28T20:07:14;100275.25;;;4.63;100.00
36788;BME280;22738;45.560;9.434;2023-02-28T20:13:55;100288.66;;;4.71;100.00
36788;BME280;22738;45.560;9.434;2023-02-28T20:20:40;100291.28;;;4.70;100.00
36788;BME280;22738;45.560;9.434;2023-02-28T20:27:21;100290.84;;;4.57;100.00
36788;BME280;22738;45.560;9.434;2023-02-28T20:34:03;100291.88;;;4.52;100.00
36788;BME280;22738;45.560;9.434;2023-02-28T20:40:44;100298.19;;;4.42;100.00
36788;BME280;22738;45.560;9.434;2023-02-28T20:47:25;100310.78;;;4.21;100.00
36788;BME280;22738;45.560;9.434;2023-02-28T20:54:07;100309.91;;;4.22;100.00
36788;BME280;22738;45.560;9.434;2023-02-28T21:00:49;100317.00;;;4.42;100.00
36788;BME280;22738;45.560;9.434;2023-02-28T21:07:30;100308.78;;;4.59;100.00
36788;BME280;22738;45.560;9.434;2023-02-28T21:14:16;100310.13;;;4.69;100.00
36788;BME280;22738;45.560;9.434;2023-02-28T21:21:06;100313.50;;;4.71;100.00
36788;BME280;22738;45.560;9.434;2023-02-28T21:27:47;100305.31;;;4.60;100.00
36788;BME280;22738;45.560;9.434;2023-02-28T21:34:28;100307.56;;;4.43;100.00
36788;BME280;22738;45.560;9.434;2023-02-28T21:41:18;100300.53;;;4.49;100.00
36788;BME280;22738;45.560;9.434;2023-02-28T21:47:59;100291.19;;;4.47;100.00
36788;BME280;22738;45.560;9.434;2023-02-28T21:54:40;100292.06;;;4.46;100.00
36788;BME280;22738;45.560;9.434;2023-02-28T22:01:21;100289.91;;;4.33;100.00
36788;BME280;22738;45.560;9.434;2023-02-28T22:08:02;100294.91;;;4.37;100.00
36788;BME280;22738;45.560;9.434;2023-02-28T22:14:43;100297.75;;;4.27;100.00
36788;BME280;22738;45.560;9.434;2023-02-28T22:21:25;100306.09;;;4.36;100.00
36788;BME280;22738;45.560;9.434;2023-02-28T22:28:07;100307.59;;;4.41;100.00
36788;BME280;22738;45.560;9.434;2023-02-28T22:34:51;100317.84;;;4.43;100.00
36788;BME280;22738;45.560;9.434;2023-02-28T22:41:32;100309.34;;;4.41;100.00
36788;BME280;22738;45.560;9.434;2023-02-28T22:48:13;100310.44;;;4.32;100.00
36788;BME280;22738;45.560;9.434;2023-02-28T22:54:54;100315.44;;;4.09;100.00
36788;BME280;22738;45.560;9.434;2023-02-28T23:01:35;100320.63;;;4.07;100.00
36788;BME280;22738;45.560;9.434;2023-02-28T23:08:18;100321.13;;;4.18;100.00
36788;BME280;22738;45.560;9.434;2023-02-28T23:15:03;100307.50;;;4.18;100.00
36788;BME280;22738;45.560;9.434;2023-02-28T23:21:45;100318.47;;;4.21;100.00
36788;BME280;22738;45.560;9.434;2023-02-28T23:28:26;100315.13;;;4.19;100.00
36788;BME280;22738;45.560;9.434;2023-02-28T23:35:08;100313.00;;;4.33;100.00
36788;BME280;22738;45.560;9.434;2023-02-28T23:41:51;100310.38;;;4.35;100.00
36788;BME280;22738;45.560;9.434;2023-02-28T23:48:32;100318.41;;;4.24;100.00
36788;BME280;22738;45.560;9.434;2023-02-28T23:55:13;100314.94;;;4.25;100.00
